Terminal Aerodrome Forecast
Issued by NWS Central Illinois

Home | Current Version | Previous Version | Text Only | Print | Product List | Glossary On
Versions: 1 2 3 4 5 6 7 8 9 10 11 12 13 14 15 16 17 18 19 20 21 22 23
000
FTUS43 KILX 062104 AAC
TAFSPI
TAF AMD
KSPI 062104Z 0621/0718 30012G18KT P6SM BKN020
     FM062200 30012G18KT P6SM SCT130
     FM070000 27008KT P6SM FEW250
     FM071100 28005KT P6SM BKN080=

USA.gov is the U.S. government's official web portal to all federal, state and local government web resources and services.